Time;durP1;ratioP1;P1;durP2;ratioP2;P2;SDS_P1;SDS_P2;PMS_P1;PMS_P2;Temp;Humidity;BMP_temperature;BMP_pressure;BME280_temperature;BME280_humidity;BME280_pressure;Samples;Min_cycle;Max_cycle;Signal;HPM_P1;HPM_P2
2023/05/03 05:41:24;;;;;;;;;;;;;;;14.19;57.91;97307.31;4249925;27;10336;-77
2023/05/03 05:43:27;;;;;;;;;;;;;;;14.48;57.81;97306.09;4224676;28;6197;-78
2023/05/03 05:45:30;;;;;;;;;;;;;;;14.73;57.23;97306.31;4216230;28;5687;-78
2023/05/03 05:47:33;;;;;;;;;;;;;;;14.93;56.86;97312.41;4215530;28;5745;-78
2023/05/03 05:49:36;;;;;;;;;;;;;;;15.04;56.57;97314.44;4215540;28;5880;-78
2023/05/03 05:51:40;;;;;;;;;;;;;;;15.09;56.44;97319.13;4231633;28;5711;-79
2023/05/03 05:53:43;;;;;;;;;;;;;;;15.14;56.11;97314.00;4230549;28;5746;-78
2023/05/03 05:55:45;;;;;;;;;;;;;;;15.18;56.22;97311.75;4225380;28;6174;-78
2023/05/03 05:57:50;;;;;;;;;;;;;;;15.34;56.05;97313.94;4230946;28;5615;-79
2023/05/03 05:59:52;;;;;;;;;;;;;;;15.53;55.85;97307.72;4215977;28;5751;-77
2023/05/03 06:01:56;;;;;;;;;;;;;;;15.64;55.42;97303.59;4218048;28;5705;-79
2023/05/03 06:03:59;;;;;;;;;;;;;;;15.70;55.36;97305.41;4217297;27;5835;-77
2023/05/03 06:06:02;;;;;;;;;;;;;;;15.78;55.11;97304.34;4234396;27;5830;-76
2023/05/03 06:08:08;;;;;;;;;;;;;;;15.89;55.07;97309.00;4235852;27;6344;-75
2023/05/03 06:10:11;;;;;;;;;;;;;;;15.92;54.80;97309.38;4230993;27;5868;-76
2023/05/03 06:12:14;;;;;;;;;;;;;;;16.01;54.67;97300.09;4223138;27;6644;-76
2023/05/03 06:14:19;;;;;;;;;;;;;;;16.10;54.87;97306.00;4221665;28;5713;-76
2023/05/03 06:16:23;;;;;;;;;;;;;;;16.19;54.59;97298.53;4221100;28;5831;-76
2023/05/03 06:18:26;;;;;;;;;;;;;;;16.22;54.27;97296.28;4224312;28;5717;-77
2023/05/03 06:20:28;;;;;;;;;;;;;;;16.27;54.53;97290.28;4214461;28;5748;-77
2023/05/03 06:22:34;;;;;;;;;;;;;;;16.38;54.42;97291.44;4214113;28;5823;-77
2023/05/03 06:24:37;;;;;;;;;;;;;;;16.48;54.18;97289.09;4214331;28;5689;-77
2023/05/03 06:26:40;;;;;;;;;;;;;;;16.55;53.86;97298.69;4218626;28;5698;-77
2023/05/03 06:28:43;;;;;;;;;;;;;;;16.59;53.96;97293.72;4219534;28;5748;-76
2023/05/03 06:30:50;;;;;;;;;;;;;;;16.63;53.71;97300.25;4219967;28;5676;-77
2023/05/03 06:32:53;;;;;;;;;;;;;;;16.69;53.76;97296.75;4217082;28;5784;-77
2023/05/03 06:34:58;;;;;;;;;;;;;;;16.69;53.60;97295.91;4221737;28;5679;-77
2023/05/03 06:37:01;;;;;;;;;;;;;;;16.73;53.52;97299.78;4227848;28;5832;-76
2023/05/03 06:39:04;;;;;;;;;;;;;;;16.78;53.32;97291.94;4222020;28;5668;-77
2023/05/03 06:41:07;;;;;;;;;;;;;;;16.82;53.22;97290.44;4213463;28;5697;-76
2023/05/03 06:43:10;;;;;;;;;;;;;;;16.85;53.09;97282.81;4207366;28;5784;-76
2023/05/03 06:45:13;;;;;;;;;;;;;;;16.90;53.09;97286.69;4208951;28;5810;-76
2023/05/03 06:47:19;;;;;;;;;;;;;;;16.93;53.04;97284.38;4206317;28;5771;-76
2023/05/03 06:49:22;;;;;;;;;;;;;;;16.91;52.83;97280.31;4206844;28;5796;-74
2023/05/03 06:51:27;;;;;;;;;;;;;;;16.90;52.83;97284.03;4201788;28;5689;-74
2023/05/03 06:53:30;;;;;;;;;;;;;;;16.94;52.67;97275.31;4201360;28;5808;-76
2023/05/03 06:55:33;;;;;;;;;;;;;;;16.99;52.60;97282.66;4205679;28;5664;-75
2023/05/03 06:57:36;;;;;;;;;;;;;;;16.99;52.39;97272.81;4203410;28;5760;-76
2023/05/03 06:59:38;;;;;;;;;;;;;;;17.00;52.20;97279.81;4211113;28;5708;-76
2023/05/03 07:01:42;;;;;;;;;;;;;;;17.02;52.23;97279.56;4208635;28;5749;-76
2023/05/03 07:03:46;;;;;;;;;;;;;;;17.03;52.00;97259.84;4209245;28;5772;-77
2023/05/03 07:05:49;;;;;;;;;;;;;;;17.04;51.91;97264.13;4214632;28;5761;-76
2023/05/03 07:07:52;;;;;;;;;;;;;;;16.98;51.85;97257.81;4208898;28;5675;-76
2023/05/03 07:09:55;;;;;;;;;;;;;;;16.96;51.92;97253.75;4214366;28;5973;-75
2023/05/03 07:11:58;;;;;;;;;;;;;;;17.00;51.67;97250.41;4201544;28;7317;-75
2023/05/03 07:14:01;;;;;;;;;;;;;;;17.04;51.77;97248.13;4211912;28;5715;-73
2023/05/03 07:16:04;;;;;;;;;;;;;;;17.04;51.52;97242.78;4203141;28;5850;-73
2023/05/03 07:18:09;;;;;;;;;;;;;;;17.01;51.23;97244.03;4205678;28;5812;-68
2023/05/03 07:20:16;;;;;;;;;;;;;;;16.99;51.29;97245.28;4206671;28;5697;-70
2023/05/03 07:22:23;;;;;;;;;;;;;;;17.00;51.29;97246.94;4214602;28;5665;-71
2023/05/03 07:24:26;;;;;;;;;;;;;;;17.00;51.41;97246.94;4209438;28;5743;-77
2023/05/03 07:26:29;;;;;;;;;;;;;;;17.01;51.19;97240.56;4217185;28;5702;-73
2023/05/03 07:28:32;;;;;;;;;;;;;;;17.01;51.25;97244.03;4215819;28;5724;-73
2023/05/03 07:30:34;;;;;;;;;;;;;;;17.01;51.15;97235.22;4217919;28;5652;-72
2023/05/03 07:32:37;;;;;;;;;;;;;;;17.01;51.04;97240.56;4209739;28;5677;-69
2023/05/03 07:34:41;;;;;;;;;;;;;;;16.98;51.04;97239.13;4209253;28;5661;-70
2023/05/03 07:36:45;;;;;;;;;;;;;;;16.97;51.04;97236.69;4209174;28;6262;-70
2023/05/03 07:38:48;;;;;;;;;;;;;;;16.93;51.15;97236.31;4206781;28;5682;-74
2023/05/03 07:40:51;;;;;;;;;;;;;;;16.88;51.16;97223.63;4218327;28;5918;-77
2023/05/03 07:42:55;;;;;;;;;;;;;;;16.87;51.06;97232.69;4210532;28;5672;-72
2023/05/03 07:44:58;;;;;;;;;;;;;;;16.86;51.16;97228.34;4205633;28;6397;-71
2023/05/03 07:47:01;;;;;;;;;;;;;;;16.83;51.29;97228.81;4208977;28;7725;-68
2023/05/03 07:49:05;;;;;;;;;;;;;;;16.80;51.21;97220.44;4204634;28;5692;-71
2023/05/03 07:51:07;;;;;;;;;;;;;;;16.78;51.07;97222.53;4207273;28;5672;-71
2023/05/03 07:53:12;;;;;;;;;;;;;;;16.75;51.08;97221.09;4206596;28;5675;-77
2023/05/03 07:55:17;;;;;;;;;;;;;;;16.75;51.17;97220.28;4208600;28;5779;-77
2023/05/03 07:57:22;;;;;;;;;;;;;;;16.73;50.98;97209.81;4213855;28;5841;-72
2023/05/03 07:59:25;;;;;;;;;;;;;;;16.75;51.07;97213.06;4207047;28;5696;-75
2023/05/03 08:01:28;;;;;;;;;;;;;;;16.77;50.94;97216.38;4203979;28;5079;-72
2023/05/03 08:03:31;;;;;;;;;;;;;;;16.75;51.16;97213.06;4215009;28;5676;-71
2023/05/03 08:05:35;;;;;;;;;;;;;;;16.78;51.21;97210.00;4204263;28;5898;-77
2023/05/03 08:07:38;;;;;;;;;;;;;;;16.82;50.98;97208.50;4210552;28;5717;-72
2023/05/03 08:09:43;;;;;;;;;;;;;;;16.83;51.07;97207.44;4208873;28;5676;-73
2023/05/03 08:11:46;;;;;;;;;;;;;;;16.83;51.16;97209.31;4209823;28;5771;-73
2023/05/03 08:13:48;;;;;;;;;;;;;;;16.82;50.99;97210.34;4211421;28;5706;-69
2023/05/03 08:15:51;;;;;;;;;;;;;;;16.80;51.11;97212.44;4209013;28;5688;-77
2023/05/03 08:17:54;;;;;;;;;;;;;;;16.78;50.86;97218.00;4211534;28;5089;-72
2023/05/03 08:19:57;;;;;;;;;;;;;;;16.76;51.07;97217.41;4205066;28;5772;-73
2023/05/03 08:22:02;;;;;;;;;;;;;;;16.75;51.04;97215.75;4211428;28;5783;-70
2023/05/03 08:24:07;;;;;;;;;;;;;;;16.74;51.07;97222.13;4209805;28;5689;-72
2023/05/03 08:26:14;;;;;;;;;;;;;;;16.78;50.94;97225.19;4210350;28;5804;-74
2023/05/03 08:28:17;;;;;;;;;;;;;;;16.78;50.97;97212.66;4201241;28;5690;-73
2023/05/03 08:30:21;;;;;;;;;;;;;;;16.73;51.05;97220.50;4215146;28;5767;-80
2023/05/03 08:32:24;;;;;;;;;;;;;;;16.70;51.29;97215.59;4202401;28;5668;-73
2023/05/03 08:34:27;;;;;;;;;;;;;;;16.71;51.30;97217.25;4207895;28;5660;-72
2023/05/03 08:36:31;;;;;;;;;;;;;;;16.73;51.10;97220.50;4200218;28;5701;-69
2023/05/03 08:38:35;;;;;;;;;;;;;;;16.74;50.88;97219.47;4201313;28;6395;-78
2023/05/03 08:40:39;;;;;;;;;;;;;;;16.75;51.13;97218.41;4207910;28;5693;-70
2023/05/03 08:42:45;;;;;;;;;;;;;;;16.76;50.80;97225.41;4213120;28;5672;-69
2023/05/03 08:44:48;;;;;;;;;;;;;;;16.78;50.89;97218.00;4220633;28;5672;-74
2023/05/03 08:46:51;;;;;;;;;;;;;;;16.82;50.78;97223.69;4208069;28;5144;-73
2023/05/03 08:48:55;;;;;;;;;;;;;;;16.82;50.69;97221.84;4216912;28;5668;-71
2023/05/03 08:51:04;;;;;;;;;;;;;;;16.83;50.68;97225.31;4203981;28;5780;-86
2023/05/03 08:53:08;;;;;;;;;;;;;;;16.82;50.61;97219.16;4214351;28;5656;-74
2023/05/03 08:55:11;;;;;;;;;;;;;;;16.78;50.69;97215.31;4204266;28;5703;-74
2023/05/03 08:57:15;;;;;;;;;;;;;;;16.85;50.54;97224.06;4201897;28;5701;-75
2023/05/03 08:59:19;;;;;;;;;;;;;;;16.88;50.53;97223.63;4204314;28;5676;-77
2023/05/03 09:01:22;;;;;;;;;;;;;;;16.91;50.58;97219.69;4206314;28;5693;-77
2023/05/03 09:03:25;;;;;;;;;;;;;;;16.88;50.42;97223.63;4215284;28;6369;-75
2023/05/03 09:05:33;;;;;;;;;;;;;;;16.93;50.59;97227.47;4207523;28;5661;-75
2023/05/03 09:07:36;;;;;;;;;;;;;;;16.92;50.55;97225.84;4201378;28;5690;-76
2023/05/03 09:09:39;;;;;;;;;;;;;;;16.88;50.73;97220.97;4214390;28;5755;-74
2023/05/03 09:11:42;;;;;;;;;;;;;;;16.88;50.68;97228.16;4206918;28;5796;-76
2023/05/03 09:13:45;;;;;;;;;;;;;;;16.90;50.82;97214.59;4205735;28;5894;-75
2023/05/03 09:15:54;;;;;;;;;;;;;;;16.88;50.73;97228.97;4202626;28;5713;-75
2023/05/03 09:18:11;;;;;;;;;;;;;;;16.89;50.80;97229.78;4212100;28;6606;-76
2023/05/03 09:20:14;;;;;;;;;;;;;;;16.92;50.68;97229.34;4206798;28;5849;-75
2023/05/03 09:22:17;;;;;;;;;;;;;;;16.93;50.63;97230.16;4203379;28;5681;-76
2023/05/03 09:24:21;;;;;;;;;;;;;;;16.93;50.55;97230.16;4200517;28;5705;-75
2023/05/03 09:26:29;;;;;;;;;;;;;;;16.95;50.55;97228.06;4199848;28;5811;-75
2023/05/03 09:28:41;;;;;;;;;;;;;;;16.97;50.48;97226.81;4200450;28;5792;-76
2023/05/03 09:30:45;;;;;;;;;;;;;;;16.99;50.36;97230.09;4216958;28;5676;-75
2023/05/03 09:32:49;;;;;;;;;;;;;;;17.03;50.47;97231.28;4206563;28;5681;-75
2023/05/03 09:35:09;;;;;;;;;;;;;;;17.09;50.51;97229.53;4208948;28;5744;-76
2023/05/03 09:37:13;;;;;;;;;;;;;;;17.14;50.20;97232.38;4214676;28;5685;-76
2023/05/03 09:39:18;;;;;;;;;;;;;;;17.10;50.25;97239.19;4217343;28;7672;-76
2023/05/03 09:41:28;;;;;;;;;;;;;;;17.05;50.41;97229.19;4217350;28;5751;-76
2023/05/03 09:43:32;;;;;;;;;;;;;;;17.07;50.42;97234.31;4217013;28;5684;-76
2023/05/03 09:45:35;;;;;;;;;;;;;;;17.13;50.44;97225.41;4204765;28;5687;-76
2023/05/03 09:47:52;;;;;;;;;;;;;;;17.17;50.31;97235.41;4216433;28;5743;-76
2023/05/03 09:49:55;;;;;;;;;;;;;;;17.24;50.22;97243.34;4213498;28;5796;-76
2023/05/03 09:52:00;;;;;;;;;;;;;;;17.28;50.19;97236.50;4200420;28;5678;-75
2023/05/03 09:54:03;;;;;;;;;;;;;;;17.28;50.13;97231.16;4199924;28;5701;-75
2023/05/03 09:56:08;;;;;;;;;;;;;;;17.27;50.08;97236.75;4204894;28;5709;-75
2023/05/03 09:58:12;;;;;;;;;;;;;;;17.29;50.21;97235.47;4216996;28;5715;-75
2023/05/03 10:00:19;;;;;;;;;;;;;;;17.31;50.15;97238.72;4208188;28;5676;-76
2023/05/03 10:02:22;;;;;;;;;;;;;;;17.27;50.18;97242.91;4216767;28;5668;-73
2023/05/03 10:04:28;;;;;;;;;;;;;;;17.29;50.24;97235.47;4208794;28;5657;-74
2023/05/03 10:06:35;;;;;;;;;;;;;;;17.35;50.25;97247.13;4217423;28;5671;-75
2023/05/03 10:08:41;;;;;;;;;;;;;;;17.39;50.16;97242.97;4207723;28;5668;-75
2023/05/03 10:10:46;;;;;;;;;;;;;;;17.40;50.24;97248.06;4208650;28;5821;-75
2023/05/03 10:12:52;;;;;;;;;;;;;;;17.42;50.31;97246.00;4208413;28;5672;-76
2023/05/03 10:14:57;;;;;;;;;;;;;;;17.44;50.42;97248.44;4211664;28;5731;-75
2023/05/03 10:17:04;;;;;;;;;;;;;;;17.50;50.49;97246.72;4205488;28;5801;-74
2023/05/03 10:19:13;;;;;;;;;;;;;;;17.52;50.35;97241.97;4203151;28;5682;-75
2023/05/03 10:21:26;;;;;;;;;;;;;;;17.53;50.43;97241.72;4203436;28;6414;-75
2023/05/03 10:23:29;;;;;;;;;;;;;;;17.56;50.54;97241.31;4211173;28;5776;-75
2023/05/03 10:25:33;;;;;;;;;;;;;;;17.56;50.22;97241.31;4220061;28;5668;-74
2023/05/03 10:27:42;;;;;;;;;;;;;;;17.58;50.26;97244.56;4211006;28;5776;-75
2023/05/03 10:29:52;;;;;;;;;;;;;;;17.59;50.25;97243.53;4202736;28;5697;-75
2023/05/03 10:31:55;;;;;;;;;;;;;;;17.60;50.41;97247.81;4206323;28;5708;-74
2023/05/03 10:33:58;;;;;;;;;;;;;;;17.64;50.40;97240.16;4219140;28;5672;-74
2023/05/03 10:36:06;;;;;;;;;;;;;;;17.65;50.13;97233.75;4217559;28;5664;-74
2023/05/03 10:38:16;;;;;;;;;;;;;;;17.67;50.07;97229.84;4219063;28;5762;-75
2023/05/03 10:40:20;;;;;;;;;;;;;;;17.72;50.14;97234.53;4219139;28;5668;-74
2023/05/03 10:42:25;;;;;;;;;;;;;;;17.71;50.16;97228.38;4219218;28;5795;-75
2023/05/03 10:44:29;;;;;;;;;;;;;;;17.75;50.05;97234.06;4205472;28;5697;-75
2023/05/03 10:46:34;;;;;;;;;;;;;;;17.78;50.00;97222.94;4206907;28;5687;-75
2023/05/03 10:48:38;;;;;;;;;;;;;;;17.82;49.85;97223.28;4203390;28;5794;-75
2023/05/03 10:50:43;;;;;;;;;;;;;;;17.81;49.84;97217.13;4213031;28;5693;-74
2023/05/03 10:52:47;;;;;;;;;;;;;;;17.81;49.75;97217.13;4208744;28;5686;-75
2023/05/03 10:54:51;;;;;;;;;;;;;;;17.82;49.90;97213.41;4202059;28;5698;-75
2023/05/03 10:56:56;;;;;;;;;;;;;;;17.86;49.78;97211.88;4212910;28;5692;-75
2023/05/03 10:58:59;;;;;;;;;;;;;;;17.87;49.68;97210.84;4207054;28;5698;-75
2023/05/03 11:01:03;;;;;;;;;;;;;;;17.89;49.46;97203.41;4202299;28;5837;-75
2023/05/03 11:03:39;;;;;;;;;;;;;;;17.89;49.56;97203.41;4216197;28;5796;-75
2023/05/03 11:05:42;;;;;;;;;;;;;;;17.92;49.65;97199.47;4205050;28;5705;-76
2023/05/03 11:07:45;;;;;;;;;;;;;;;17.92;49.59;97202.97;4211632;28;5664;-77
2023/05/03 11:09:48;;;;;;;;;;;;;;;17.93;49.54;97204.59;4207264;28;5713;-75
2023/05/03 11:11:52;;;;;;;;;;;;;;;17.92;49.52;97204.81;4204134;28;5884;-77
2023/05/03 11:13:56;;;;;;;;;;;;;;;17.91;49.58;97206.69;4205339;28;5820;-76
2023/05/03 11:15:59;;;;;;;;;;;;;;;17.96;49.53;97203.31;4202291;28;5686;-76
2023/05/03 11:18:02;;;;;;;;;;;;;;;17.98;49.45;97202.03;4203281;28;5694;-76
2023/05/03 11:20:08;;;;;;;;;;;;;;;18.00;49.68;97204.47;4207736;28;5755;-77
2023/05/03 11:22:12;;;;;;;;;;;;;;;18.02;49.72;97205.88;4208817;28;5773;-77
2023/05/03 11:24:15;;;;;;;;;;;;;;;18.06;49.62;97197.41;4209020;28;5762;-77
2023/05/03 11:26:22;;;;;;;;;;;;;;;18.06;49.57;97197.41;4204498;28;5768;-78
2023/05/03 11:28:26;;;;;;;;;;;;;;;18.07;49.77;97194.47;4209836;28;5873;-78
2023/05/03 11:30:32;;;;;;;;;;;;;;;18.10;49.62;97191.34;4202507;28;5688;-77
2023/05/03 11:32:35;;;;;;;;;;;;;;;18.14;49.62;97195.19;4203335;28;5753;-77
2023/05/03 11:34:39;;;;;;;;;;;;;;;18.17;49.61;97193.91;4209980;28;5681;-77
2023/05/03 11:36:42;;;;;;;;;;;;;;;18.19;49.70;97186.47;4210826;28;5696;-77
2023/05/03 11:38:45;;;;;;;;;;;;;;;18.19;49.60;97183.78;4213058;28;5672;-77
2023/05/03 11:40:48;;;;;;;;;;;;;;;18.20;49.78;97178.22;4208079;28;5858;-75
2023/05/03 11:42:53;;;;;;;;;;;;;;;18.22;49.65;97186.81;4206293;28;6432;-75
2023/05/03 11:45:00;;;;;;;;;;;;;;;18.22;49.56;97186.81;4207006;28;5828;-74
2023/05/03 11:47:04;;;;;;;;;;;;;;;18.25;49.60;97191.72;4206827;28;5669;-75
2023/05/03 11:49:07;;;;;;;;;;;;;;;18.26;49.69;97188.00;4208817;28;6355;-75
2023/05/03 11:51:11;;;;;;;;;;;;;;;18.29;49.86;97181.34;4202441;28;6014;-74
2023/05/03 11:53:15;;;;;;;;;;;;;;;18.30;49.57;97183.81;4206951;28;5832;-75
2023/05/03 11:55:18;;;;;;;;;;;;;;;18.32;49.63;97175.53;4214875;28;5790;-76
2023/05/03 11:57:21;;;;;;;;;;;;;;;18.33;49.56;97177.97;4212643;28;5682;-76
2023/05/03 11:59:34;;;;;;;;;;;;;;;18.36;49.63;97178.56;4209775;28;5894;-76
2023/05/03 12:01:38;;;;;;;;;;;;;;;18.37;49.69;97183.69;4204274;28;5697;-76
2023/05/03 12:03:41;;;;;;;;;;;;;;;18.38;49.55;97179.97;4205456;28;5634;-76
2023/05/03 12:05:46;;;;;;;;;;;;;;;18.41;49.53;97179.50;4205586;28;5857;-70
2023/05/03 12:07:51;;;;;;;;;;;;;;;18.46;49.54;97178.78;4204594;28;5701;-72
2023/05/03 12:09:55;;;;;;;;;;;;;;;18.47;49.46;97172.41;4213191;28;5778;-75
2023/05/03 12:12:19;;;;;;;;;;;;;;;18.49;49.36;97170.31;4206299;28;5784;-76
2023/05/03 12:14:29;;;;;;;;;;;;;;;18.49;49.48;97173.78;4207374;28;5681;-75
2023/05/03 12:16:48;;;;;;;;;;;;;;;18.53;49.41;97166.91;4201558;28;5859;-75
2023/05/03 12:18:55;;;;;;;;;;;;;;;18.57;49.45;97161.91;4209657;28;5674;-75
2023/05/03 12:20:59;;;;;;;;;;;;;;;18.58;49.41;97161.69;4207880;28;6460;-75
2023/05/03 12:23:07;;;;;;;;;;;;;;;18.63;49.25;97156.44;4212182;28;5879;-75
2023/05/03 12:25:12;;;;;;;;;;;;;;;18.64;49.23;97157.28;4208644;28;5664;-76
2023/05/03 12:27:17;;;;;;;;;;;;;;;18.65;49.32;97155.41;4205088;28;5820;-75
2023/05/03 12:29:23;;;;;;;;;;;;;;;18.65;49.27;97158.91;4210508;28;5812;-76
2023/05/03 12:31:31;;;;;;;;;;;;;;;18.70;49.04;97150.19;4211819;28;5157;-75
2023/05/03 12:33:38;;;;;;;;;;;;;;;18.71;49.19;97151.81;4215746;28;5691;-75
2023/05/03 12:35:41;;;;;;;;;;;;;;;18.72;49.03;97158.78;4213746;28;5791;-75
2023/05/03 12:37:48;;;;;;;;;;;;;;;18.71;49.03;97146.44;4215657;28;5683;-75
2023/05/03 12:39:51;;;;;;;;;;;;;;;18.76;49.19;97154.56;4203066;28;5680;-76
2023/05/03 12:42:14;;;;;;;;;;;;;;;18.79;48.97;97156.78;4217682;28;5688;-76
2023/05/03 12:44:18;;;;;;;;;;;;;;;18.82;49.10;97150.97;4207948;28;5771;-76
2023/05/03 12:46:25;;;;;;;;;;;;;;;18.84;48.96;97146.19;4219160;28;5891;-75
2023/05/03 12:48:38;;;;;;;;;;;;;;;18.84;49.03;97148.84;4201039;28;5685;-76
2023/05/03 12:50:41;;;;;;;;;;;;;;;18.86;49.04;97144.06;4203161;28;5701;-75
2023/05/03 12:52:48;;;;;;;;;;;;;;;18.86;49.12;97133.34;4207045;28;5692;-76
2023/05/03 12:54:55;;;;;;;;;;;;;;;18.86;48.99;97128.81;4206601;28;5702;-77
2023/05/03 12:57:02;;;;;;;;;;;;;;;18.89;49.22;97130.19;4211499;28;5676;-76
2023/05/03 12:59:11;;;;;;;;;;;;;;;18.92;49.03;97121.69;4209754;28;5676;-76
2023/05/03 13:01:34;;;;;;;;;;;;;;;18.96;48.90;97120.16;4210850;28;6343;-75
2023/05/03 13:03:58;;;;;;;;;;;;;;;18.97;48.81;97103.03;4212968;28;5648;-76
2023/05/03 13:06:21;;;;;;;;;;;;;;;19.02;48.75;97107.66;4208218;28;5766;-76
2023/05/03 13:08:25;;;;;;;;;;;;;;;19.04;48.77;97110.94;4202075;28;5768;-76
2023/05/03 13:10:36;;;;;;;;;;;;;;;19.04;48.84;97094.88;4205353;28;5484;-76
2023/05/03 13:12:39;;;;;;;;;;;;;;;19.03;48.63;97102.09;4200894;28;7835;-75
2023/05/03 13:14:42;;;;;;;;;;;;;;;19.04;48.77;97098.34;4201083;28;5784;-75
2023/05/03 13:16:45;;;;;;;;;;;;;;;19.07;48.69;97097.88;4209206;28;5672;-75
2023/05/03 13:18:53;;;;;;;;;;;;;;;19.09;48.66;97093.09;4209216;28;5656;-75
2023/05/03 13:20:57;;;;;;;;;;;;;;;19.11;48.76;97095.53;4199453;28;5670;-75
2023/05/03 13:23:00;;;;;;;;;;;;;;;19.12;48.81;97097.16;4205046;28;5663;-75
2023/05/03 13:25:04;;;;;;;;;;;;;;;19.13;48.80;97091.53;4216748;28;5660;-75
2023/05/03 13:27:09;;;;;;;;;;;;;;;19.14;48.54;97090.50;4202316;28;5638;-74
2023/05/03 13:29:12;;;;;;;;;;;;;;;19.18;48.55;97088.97;4200645;28;7630;-77
2023/05/03 13:31:14;;;;;;;;;;;;;;;19.23;48.44;97090.91;4212386;28;5689;-75
2023/05/03 13:33:17;;;;;;;;;;;;;;;19.25;48.34;97093.34;4210630;28;5668;-77
2023/05/03 13:35:20;;;;;;;;;;;;;;;19.26;48.25;97082.41;4206985;28;5779;-76
2023/05/03 13:37:24;;;;;;;;;;;;;;;19.28;48.15;97082.16;4202472;28;5701;-77
2023/05/03 13:39:27;;;;;;;;;;;;;;;19.28;48.33;97079.50;4213852;28;5847;-76
2023/05/03 13:41:30;;;;;;;;;;;;;;;19.29;48.43;97073.06;4200816;28;5764;-78
2023/05/03 13:43:33;;;;;;;;;;;;;;;19.30;48.09;97075.50;4207404;28;5903;-77
2023/05/03 13:45:36;;;;;;;;;;;;;;;19.32;48.43;97070.72;4213637;28;5745;-78
2023/05/03 13:47:40;;;;;;;;;;;;;;;19.35;48.39;97077.44;4214526;28;5917;-77
2023/05/03 13:50:03;;;;;;;;;;;;;;;19.40;48.11;97077.56;4221169;28;5747;-78
2023/05/03 13:52:06;;;;;;;;;;;;;;;19.39;48.21;97071.38;4215935;28;5760;-78
2023/05/03 13:54:10;;;;;;;;;;;;;;;19.43;48.09;97077.06;4225866;28;5830;-76
2023/05/03 13:56:13;;;;;;;;;;;;;;;19.46;48.30;97069.34;4211664;28;6417;-77
2023/05/03 13:58:16;;;;;;;;;;;;;;;19.49;48.10;97062.69;4206356;28;5339;-81
2023/05/03 14:00:20;;;;;;;;;;;;;;;19.51;48.22;97065.94;4202784;28;7710;-73
2023/05/03 14:02:23;;;;;;;;;;;;;;;19.51;47.89;97065.94;4216785;28;5763;-74
2023/05/03 14:04:26;;;;;;;;;;;;;;;19.52;48.20;97064.88;4208810;28;5685;-72
2023/05/03 14:06:30;;;;;;;;;;;;;;;19.51;48.09;97060.59;4206816;28;5697;-77
2023/05/03 14:08:35;;;;;;;;;;;;;;;19.52;48.08;97054.16;4213871;28;5785;-75
2023/05/03 14:10:40;;;;;;;;;;;;;;;19.56;48.04;97051.81;4211809;28;5735;-80
2023/05/03 14:12:43;;;;;;;;;;;;;;;19.61;47.86;97039.31;4213546;28;5818;-75
2023/05/03 14:14:46;;;;;;;;;;;;;;;19.65;48.01;97040.44;4211287;28;5833;-75
2023/05/03 14:16:49;;;;;;;;;;;;;;;19.67;47.67;97037.53;4215561;28;5763;-78
2023/05/03 14:18:53;;;;;;;;;;;;;;;19.67;47.91;97035.66;4214246;28;5668;-76
2023/05/03 14:20:56;;;;;;;;;;;;;;;19.68;48.00;97029.22;4209847;28;5795;-77
2023/05/03 14:23:04;;;;;;;;;;;;;;;19.69;47.74;97022.00;4210782;28;5661;-74
2023/05/03 14:25:08;;;;;;;;;;;;;;;19.70;47.79;97026.31;4205581;28;5755;-79
2023/05/03 14:27:15;;;;;;;;;;;;;;;19.69;47.78;97017.44;4211560;28;5840;-74
2023/05/03 14:29:18;;;;;;;;;;;;;;;19.70;47.96;97018.25;4209564;28;5745;-72
2023/05/03 14:31:22;;;;;;;;;;;;;;;19.72;47.65;97019.66;4214104;28;5775;-70
2023/05/03 14:33:25;;;;;;;;;;;;;;;19.71;47.70;97023.41;4210058;28;5809;-71
2023/05/03 14:35:29;;;;;;;;;;;;;;;19.70;47.66;97026.31;4212601;28;5743;-80
2023/05/03 14:37:32;;;;;;;;;;;;;;;19.68;47.94;97021.19;4209402;28;5755;-77
2023/05/03 14:39:36;;;;;;;;;;;;;;;19.69;47.75;97019.31;4203197;28;5902;-74
2023/05/03 14:41:39;;;;;;;;;;;;;;;19.70;47.73;97021.75;4208718;28;5689;-77
2023/05/03 14:43:43;;;;;;;;;;;;;;;19.71;47.74;97022.59;4207756;28;5725;-72
2023/05/03 14:45:47;;;;;;;;;;;;;;;19.71;47.55;97018.03;4204483;28;6495;-73
2023/05/03 14:47:50;;;;;;;;;;;;;;;19.73;47.51;97015.09;4207984;28;5934;-75
2023/05/03 14:49:53;;;;;;;;;;;;;;;19.74;47.63;97012.16;4219256;28;5699;-75
2023/05/03 14:51:56;;;;;;;;;;;;;;;19.72;47.73;97005.44;4213015;28;5866;-76
2023/05/03 14:53:59;;;;;;;;;;;;;;;19.77;47.53;97016.22;4208692;28;5905;-69
2023/05/03 14:56:03;;;;;;;;;;;;;;;19.78;47.77;97018.66;4207412;28;5763;-75
2023/05/03 14:58:06;;;;;;;;;;;;;;;19.83;47.70;97009.06;4208176;28;5766;-74
2023/05/03 15:00:13;;;;;;;;;;;;;;;19.87;47.54;97015.56;4197645;28;5780;-82
2023/05/03 15:02:18;;;;;;;;;;;;;;;19.90;47.44;97015.06;4200736;28;5681;-81
2023/05/03 15:04:22;;;;;;;;;;;;;;;19.89;47.61;97019.63;4207358;28;5742;-73
2023/05/03 15:06:27;;;;;;;;;;;;;;;19.88;47.37;97018.00;4200889;28;5693;-74
2023/05/03 15:08:30;;;;;;;;;;;;;;;19.89;47.52;97013.44;4206516;28;5693;-74
2023/05/03 15:10:33;;;;;;;;;;;;;;;19.89;47.49;97008.06;4210565;28;5771;-73
2023/05/03 15:12:38;;;;;;;;;;;;;;;19.91;47.26;97000.59;4203170;28;5971;-73
2023/05/03 15:14:41;;;;;;;;;;;;;;;19.92;47.31;97007.56;4202509;28;7417;-74
2023/05/03 15:16:46;;;;;;;;;;;;;;;19.92;47.26;97002.22;4200638;28;5690;-74
2023/05/03 15:18:49;;;;;;;;;;;;;;;19.91;47.43;97000.59;4203761;28;5811;-72
2023/05/03 15:20:52;;;;;;;;;;;;;;;19.88;47.34;96999.22;4198848;28;5772;-72
2023/05/03 15:22:55;;;;;;;;;;;;;;;19.87;47.47;97000.28;4204683;28;5709;-72
2023/05/03 15:24:58;;;;;;;;;;;;;;;19.89;47.71;97005.38;4204788;28;5828;-72
2023/05/03 15:27:03;;;;;;;;;;;;;;;19.87;47.54;96999.47;4203982;28;5823;-72
2023/05/03 15:29:06;;;;;;;;;;;;;;;19.86;47.41;97004.03;4206937;28;5886;-73
2023/05/03 15:31:09;;;;;;;;;;;;;;;19.88;47.56;97015.31;4200675;28;5736;-70
2023/05/03 15:33:14;;;;;;;;;;;;;;;19.89;47.38;97002.72;4206165;28;5682;-70
2023/05/03 15:35:17;;;;;;;;;;;;;;;19.88;47.40;97007.25;4205721;28;5692;-72
2023/05/03 15:37:20;;;;;;;;;;;;;;;19.90;47.29;97001.66;4200205;28;6414;-74
2023/05/03 15:39:23;;;;;;;;;;;;;;;19.90;47.26;97004.34;4204485;28;5778;-73
2023/05/03 15:41:26;;;;;;;;;;;;;;;19.91;47.50;97011.31;4204602;28;5762;-74
2023/05/03 15:43:29;;;;;;;;;;;;;;;19.89;47.53;97000.03;4205971;28;5668;-69
2023/05/03 15:45:31;;;;;;;;;;;;;;;19.89;47.64;97006.19;4203494;28;5697;-70
2023/05/03 15:47:34;;;;;;;;;;;;;;;19.87;47.52;97002.97;4200279;28;5871;-71
2023/05/03 15:49:38;;;;;;;;;;;;;;;19.88;47.42;97004.59;4200459;28;5790;-71
2023/05/03 15:51:41;;;;;;;;;;;;;;;19.89;47.33;97002.72;4212895;28;5787;-69
2023/05/03 15:53:44;;;;;;;;;;;;;;;19.89;47.66;97010.75;4213065;28;5684;-72
2023/05/03 15:55:47;;;;;;;;;;;;;;;19.89;47.49;97010.75;4199477;28;5772;-73
2023/05/03 15:57:52;;;;;;;;;;;;;;;19.88;47.57;97006.44;4211437;28;5738;-73
2023/05/03 15:59:54;;;;;;;;;;;;;;;19.88;47.45;97006.44;4207403;28;6993;-74
2023/05/03 16:01:57;;;;;;;;;;;;;;;19.90;47.28;97005.13;4205223;28;5762;-77
2023/05/03 16:04:00;;;;;;;;;;;;;;;19.92;47.46;97007.56;4203671;28;5807;-73
2023/05/03 16:06:05;;;;;;;;;;;;;;;19.93;47.30;97009.19;4201343;28;5697;-71
2023/05/03 16:08:08;;;;;;;;;;;;;;;19.96;47.23;97014.09;4212112;28;5844;-72
2023/05/03 16:10:11;;;;;;;;;;;;;;;19.99;47.40;97013.59;4204293;28;6468;-74
2023/05/03 16:12:13;;;;;;;;;;;;;;;20.03;47.10;97009.34;4204925;28;6126;-77
2023/05/03 16:14:16;;;;;;;;;;;;;;;20.10;46.95;97014.53;4207886;28;5825;-75
2023/05/03 16:16:19;;;;;;;;;;;;;;;20.10;47.12;97015.34;4207038;28;5711;-73
2023/05/03 16:18:23;;;;;;;;;;;;;;;20.11;46.91;97022.34;4200558;28;5900;-79
2023/05/03 16:20:26;;;;;;;;;;;;;;;20.13;47.09;97014.84;4210749;28;5775;-75
2023/05/03 16:22:30;;;;;;;;;;;;;;;20.16;46.83;97025.09;4202427;28;5686;-72
2023/05/03 16:24:33;;;;;;;;;;;;;;;20.14;46.88;97021.03;4204695;28;6314;-73
2023/05/03 16:26:36;;;;;;;;;;;;;;;20.14;46.79;97024.50;4202757;28;5792;-72
2023/05/03 16:28:39;;;;;;;;;;;;;;;20.15;46.97;97031.50;4205237;28;6475;-73
2023/05/03 16:30:42;;;;;;;;;;;;;;;20.13;46.93;97030.94;4207250;28;5756;-73
2023/05/03 16:32:45;;;;;;;;;;;;;;;20.11;46.95;97038.44;4198730;28;5840;-71
2023/05/03 16:34:48;;;;;;;;;;;;;;;20.13;46.93;97033.63;4199338;28;5776;-77
2023/05/03 16:36:52;;;;;;;;;;;;;;;20.15;47.03;97036.06;4205252;28;7204;-73
2023/05/03 16:38:56;;;;;;;;;;;;;;;20.14;46.93;97037.13;4202379;28;5689;-73